Time;durP1;ratioP1;P1;durP2;ratioP2;P2;SDS_P1;SDS_P2;PMS_P1;PMS_P2;Temp;Humidity;BMP_temperature;BMP_pressure;BME280_temperature;BME280_humidity;BME280_pressure;Samples;Min_cycle;Max_cycle;Signal;HPM_P1;HPM_P2
2022/12/07 00:01:19;;;;;;;10.27;5.93;;;;;;;6.87;100.00;93073.66;5110146;28;20598;-71
2022/12/07 00:03:48;;;;;;;11.40;6.20;;;;;;;6.91;100.00;93067.19;5110033;28;20085;-71
2022/12/07 00:06:17;;;;;;;10.50;5.15;;;;;;;6.84;100.00;93067.16;5109031;28;20096;-71
2022/12/07 00:08:44;;;;;;;9.95;5.63;;;;;;;6.82;100.00;93066.56;5109650;28;20065;-71
2022/12/07 00:11:14;;;;;;;7.45;4.75;;;;;;;6.82;100.00;93071.69;5109860;28;20446;-71
2022/12/07 00:13:42;;;;;;;9.00;5.90;;;;;;;6.79;100.00;93064.38;5109326;28;20104;-71
2022/12/07 00:16:11;;;;;;;8.40;5.35;;;;;;;6.79;100.00;93064.38;5109965;28;20089;-71
2022/12/07 00:18:39;;;;;;;10.00;5.80;;;;;;;6.78;100.00;93060.28;5109707;28;20506;-71
2022/12/07 00:21:09;;;;;;;8.32;5.00;;;;;;;6.79;100.00;93065.19;5109808;28;20043;-71
2022/12/07 00:23:36;;;;;;;8.48;5.35;;;;;;;6.74;100.00;93056.50;5109766;28;20417;-71
2022/12/07 00:26:07;;;;;;;9.10;5.60;;;;;;;6.67;100.00;93047.06;5110213;28;20043;-71
2022/12/07 00:28:34;;;;;;;8.68;5.32;;;;;;;6.70;100.00;93063.75;5110056;28;20055;-71
2022/12/07 00:31:03;;;;;;;11.45;6.65;;;;;;;6.70;100.00;93058.66;5110168;28;20109;-71
2022/12/07 00:33:30;;;;;;;8.88;5.47;;;;;;;6.71;100.00;93054.34;5109801;28;20477;-71
2022/12/07 00:35:59;;;;;;;7.22;5.50;;;;;;;6.70;100.00;93063.00;5109524;28;20044;-71
2022/12/07 00:38:29;;;;;;;9.13;5.10;;;;;;;6.50;100.00;93026.19;5109909;28;20079;-71
2022/12/07 00:40:57;;;;;;;8.55;4.60;;;;;;;6.72;100.00;93056.72;5110003;28;20044;-71
2022/12/07 00:43:25;;;;;;;7.60;4.95;;;;;;;6.73;100.00;93060.84;5110110;28;20097;-71
2022/12/07 00:45:51;;;;;;;7.35;4.50;;;;;;;6.74;100.00;93061.63;5109622;28;20052;-71
2022/12/07 00:48:18;;;;;;;9.30;5.25;;;;;;;6.74;100.00;93059.06;5109635;28;20051;-71
2022/12/07 00:50:45;;;;;;;9.45;4.97;;;;;;;6.75;100.00;93050.44;5109498;28;20051;-71
2022/12/07 00:53:13;;;;;;;8.25;5.22;;;;;;;6.73;100.00;93050.63;5109443;28;20675;-71
2022/12/07 00:55:40;;;;;;;8.73;5.13;;;;;;;6.72;100.00;93041.41;5109971;28;20081;-71
2022/12/07 00:58:07;;;;;;;8.85;5.43;;;;;;;6.70;100.00;93030.56;5109854;28;20043;-71
2022/12/07 01:00:35;;;;;;;8.60;4.35;;;;;;;6.81;100.00;93053.00;5109643;28;20380;-72
2022/12/07 01:03:02;;;;;;;12.57;5.22;;;;;;;6.72;100.00;93035.50;5104936;28;20078;-71
2022/12/07 01:05:29;;;;;;;11.05;5.40;;;;;;;6.79;100.00;93042.22;5108594;28;20052;-71
2022/12/07 01:07:55;;;;;;;11.65;6.53;;;;;;;6.82;100.00;93048.69;5109821;28;20104;-71
2022/12/07 01:10:24;;;;;;;8.93;6.03;;;;;;;6.83;100.00;93047.72;5109619;28;20040;-71
2022/12/07 01:12:50;;;;;;;9.73;6.00;;;;;;;6.89;100.00;93051.28;5109727;28;20120;-72
2022/12/07 01:15:17;;;;;;;10.45;4.88;;;;;;;6.84;100.00;93054.41;5109415;28;20048;-71
2022/12/07 01:17:44;;;;;;;17.63;10.52;;;;;;;6.90;100.00;93050.31;5109395;28;20085;-71
2022/12/07 01:20:12;;;;;;;12.88;7.03;;;;;;;6.95;100.00;93058.19;5109264;28;20101;-72
2022/12/07 01:22:40;;;;;;;14.00;9.48;;;;;;;6.94;100.00;93049.72;5109391;28;20101;-71
2022/12/07 01:25:08;;;;;;;13.80;8.38;;;;;;;6.95;100.00;93046.19;5112101;28;20051;-71
2022/12/07 01:27:37;;;;;;;11.02;5.28;;;;;;;6.93;100.00;93037.94;5113152;28;20520;-71
2022/12/07 01:30:06;;;;;;;14.35;6.47;;;;;;;6.94;100.00;93039.50;5113015;28;20043;-71
2022/12/07 01:32:33;;;;;;;12.88;7.45;;;;;;;6.94;100.00;93038.72;5112911;28;20102;-72
2022/12/07 01:35:00;;;;;;;14.40;8.13;;;;;;;6.89;100.00;93030.88;5113055;28;20469;-72
2022/12/07 01:37:26;;;;;;;13.68;6.45;;;;;;;6.84;100.00;93030.66;5111604;28;20043;-71
2022/12/07 01:39:53;;;;;;;9.15;5.70;;;;;;;6.86;100.00;93033.78;5107227;28;20109;-72
2022/12/07 01:42:20;;;;;;;12.73;7.22;;;;;;;6.85;100.00;93027.88;5112615;28;20077;-72
2022/12/07 01:45:33;;;;;;;12.77;6.55;;;;;;;6.81;100.00;93021.59;5112068;28;20039;-71
2022/12/07 01:48:01;;;;;;;38.75;17.85;;;;;;;6.84;100.00;93023.00;5064162;28;20108;-71
2022/12/07 01:50:31;;;;;;;16.88;9.40;;;;;;;6.89;100.00;93020.66;5112471;28;20089;-71
2022/12/07 01:53:00;;;;;;;19.73;7.97;;;;;;;6.93;100.00;93016.72;5112057;28;20043;-71
2022/12/07 01:55:27;;;;;;;13.63;6.20;;;;;;;6.93;100.00;93022.63;5112655;28;20505;-71
2022/12/07 01:57:56;;;;;;;32.70;12.50;;;;;;;6.94;100.00;93024.19;5111893;28;20081;-71
2022/12/07 02:00:23;;;;;;;25.90;10.73;;;;;;;6.99;100.00;93015.94;5112400;28;20039;-71
2022/12/07 02:02:56;;;;;;;13.85;5.53;;;;;;;7.01;100.00;93010.66;5111988;28;20615;-72
2022/12/07 02:05:25;;;;;;;16.83;7.55;;;;;;;6.86;100.00;93008.25;5112069;28;20098;-72
2022/12/07 02:07:56;;;;;;;20.30;9.20;;;;;;;6.99;100.00;93026.16;5112413;28;20050;-72
2022/12/07 02:10:24;;;;;;;10.75;6.40;;;;;;;6.98;100.00;93021.28;5112127;28;20144;-72
2022/12/07 02:12:56;;;;;;;8.65;5.55;;;;;;;6.97;100.00;93017.91;5112019;28;20043;-72
2022/12/07 02:15:27;;;;;;;11.80;5.60;;;;;;;6.93;100.00;93012.41;5111837;28;20044;-72
2022/12/07 02:18:02;;;;;;;10.73;5.88;;;;;;;6.92;100.00;93007.50;5111866;28;20461;-72
2022/12/07 02:20:34;;;;;;;11.68;5.65;;;;;;;6.88;100.00;93006.28;5112035;28;20135;-72
2022/12/07 02:23:39;;;;;;;15.88;8.45;;;;;;;6.88;100.00;92990.97;5111793;28;20101;-72
2022/12/07 02:26:25;;;;;;;14.75;7.00;;;;;;;6.85;100.00;92997.25;5111905;28;20056;-72
2022/12/07 02:29:11;;;;;;;10.40;5.32;;;;;;;6.81;100.00;92999.41;5111409;28;20039;-72
2022/12/07 02:31:44;;;;;;;9.50;5.65;;;;;;;6.84;100.00;93000.78;5110263;28;20051;-72
2022/12/07 02:34:18;;;;;;;10.77;5.45;;;;;;;6.85;100.00;92996.47;5111384;28;20055;-71
2022/12/07 02:36:51;;;;;;;14.70;6.75;;;;;;;6.85;100.00;92988.81;5110456;28;20043;-71
2022/12/07 02:39:21;;;;;;;15.30;8.45;;;;;;;6.61;100.00;92950.06;5111266;28;20058;-71
2022/12/07 02:41:52;;;;;;;11.05;6.20;;;;;;;6.59;100.00;92949.44;5111591;28;20044;-71
2022/12/07 02:44:24;;;;;;;11.90;5.90;;;;;;;6.76;100.00;92988.97;5111156;28;20073;-71
2022/12/07 02:46:55;;;;;;;9.95;5.40;;;;;;;6.82;100.00;92979.78;5111366;28;20043;-71
2022/12/07 02:49:24;;;;;;;17.17;7.65;;;;;;;6.65;100.00;92972.44;5111243;28;20079;-71
2022/12/07 02:51:53;;;;;;;11.50;4.88;;;;;;;6.77;100.00;92989.78;5111280;28;20051;-71
2022/12/07 02:54:21;;;;;;;9.02;5.10;;;;;;;6.76;100.00;92978.00;5111392;28;20048;-71
2022/12/07 02:56:51;;;;;;;17.52;8.50;;;;;;;6.73;100.00;92978.34;5111109;28;20073;-71
2022/12/07 02:59:30;;;;;;;11.52;5.75;;;;;;;6.71;100.00;92973.44;5111348;28;20088;-71
2022/12/07 03:02:06;;;;;;;12.73;6.13;;;;;;;6.68;100.00;92966.94;5111298;27;20392;-72
2022/12/07 03:04:46;;;;;;;11.48;5.85;;;;;;;6.49;100.00;92942.16;5110998;28;20043;-71
2022/12/07 03:07:20;;;;;;;11.63;6.55;;;;;;;6.61;100.00;92966.16;5110940;27;20476;-71
2022/12/07 03:09:59;;;;;;;14.18;6.60;;;;;;;6.62;100.00;92969.50;5110761;28;20597;-72
2022/12/07 03:12:31;;;;;;;13.15;5.75;;;;;;;6.57;100.00;92952.19;5110999;28;20131;-71
2022/12/07 03:15:06;;;;;;;12.60;6.07;;;;;;;6.65;100.00;92959.69;5110612;28;20059;-71
2022/12/07 03:17:37;;;;;;;10.68;5.85;;;;;;;6.62;100.00;92962.63;5110803;28;20039;-71
2022/12/07 03:20:09;;;;;;;10.63;6.00;;;;;;;6.48;100.00;92955.91;5110705;28;20449;-71
2022/12/07 03:22:39;;;;;;;11.30;6.05;;;;;;;6.54;100.00;92965.34;5110856;28;20043;-71
2022/12/07 03:25:10;;;;;;;10.75;6.80;;;;;;;6.53;100.00;92966.31;5110390;28;20131;-71
2022/12/07 03:27:42;;;;;;;12.07;6.93;;;;;;;6.54;100.00;92963.56;5102245;28;20123;-71
2022/12/07 03:30:13;;;;;;;17.48;8.45;;;;;;;6.59;100.00;92960.47;5110570;28;20093;-71
2022/12/07 03:32:44;;;;;;;13.10;7.07;;;;;;;6.59;100.00;92964.75;5110675;28;20036;-72
2022/12/07 03:35:16;;;;;;;9.43;5.78;;;;;;;6.58;100.00;92963.19;5110364;28;20047;-71
2022/12/07 03:37:49;;;;;;;12.90;6.80;;;;;;;6.54;100.00;92968.66;5110824;28;20136;-71
2022/12/07 03:40:22;;;;;;;14.10;8.07;;;;;;;6.50;100.00;92962.41;5110227;28;20047;-71
2022/12/07 03:42:50;;;;;;;10.68;6.30;;;;;;;6.54;100.00;92961.00;5110170;28;20491;-71
2022/12/07 03:45:20;;;;;;;15.05;7.88;;;;;;;6.55;100.00;92961.81;5110360;28;20051;-71
2022/12/07 03:47:51;;;;;;;14.27;5.97;;;;;;;6.58;100.00;92961.44;5110115;28;20444;-71
2022/12/07 03:50:26;;;;;;;10.68;5.68;;;;;;;6.49;100.00;92960.03;5110264;28;20073;-71
2022/12/07 03:52:57;;;;;;;19.02;8.85;;;;;;;6.48;100.00;92964.31;5110207;28;20105;-71
2022/12/07 03:55:28;;;;;;;12.25;6.65;;;;;;;6.52;100.00;92962.97;5109978;28;20051;-71
2022/12/07 03:58:03;;;;;;;13.20;6.90;;;;;;;6.47;100.00;92944.91;5110215;28;20180;-71
2022/12/07 04:00:31;;;;;;;22.48;11.25;;;;;;;6.60;100.00;92953.56;5110244;28;20052;-71
2022/12/07 04:02:58;;;;;;;22.63;12.25;;;;;;;6.63;100.00;92961.63;5109861;28;20052;-71
2022/12/07 04:05:25;;;;;;;9.85;6.00;;;;;;;6.55;100.00;92957.50;5109767;28;20048;-71
2022/12/07 04:07:52;;;;;;;11.27;6.15;;;;;;;6.56;100.00;92958.28;5109886;28;20097;-71
2022/12/07 04:10:19;;;;;;;20.67;12.57;;;;;;;6.60;100.00;92963.78;5109646;28;20040;-71
2022/12/07 04:12:46;;;;;;;16.30;8.77;;;;;;;6.59;100.00;92949.44;5109957;28;20475;-71
2022/12/07 04:15:13;;;;;;;12.38;6.97;;;;;;;6.58;100.00;92953.78;5109747;28;20104;-71
2022/12/07 04:17:41;;;;;;;29.83;16.38;;;;;;;6.61;100.00;92960.28;5109617;28;20092;-70
2022/12/07 04:20:09;;;;;;;12.35;7.00;;;;;;;6.62;100.00;92949.84;5107047;28;20047;-70
2022/12/07 04:22:35;;;;;;;13.38;7.05;;;;;;;6.61;100.00;92950.06;5109546;28;20047;-70
2022/12/07 04:25:02;;;;;;;14.15;8.13;;;;;;;6.61;100.00;92955.16;5110101;28;20048;-71
2022/12/07 04:27:29;;;;;;;13.93;8.00;;;;;;;6.62;100.00;92969.50;5109838;28;20077;-71
2022/12/07 04:29:56;;;;;;;15.10;6.65;;;;;;;6.57;100.00;92964.94;5109728;28;20077;-71
2022/12/07 04:32:22;;;;;;;14.20;7.38;;;;;;;6.62;100.00;92970.28;5109444;28;20152;-70
2022/12/07 04:34:51;;;;;;;26.63;12.50;;;;;;;6.52;100.00;92954.53;5109588;28;20043;-70
2022/12/07 04:37:18;;;;;;;14.13;7.07;;;;;;;6.52;100.00;92959.63;5109415;28;20507;-70
2022/12/07 04:39:45;;;;;;;14.90;7.85;;;;;;;6.45;100.00;92963.94;5109183;28;20052;-70
2022/12/07 04:42:12;;;;;;;9.73;6.40;;;;;;;6.43;100.00;92961.56;5109515;28;20126;-70
2022/12/07 04:44:39;;;;;;;11.07;6.65;;;;;;;6.48;100.00;92966.88;5109361;28;20126;-70
2022/12/07 04:47:06;;;;;;;12.10;7.50;;;;;;;6.48;100.00;92966.09;5109578;28;20093;-70
2022/12/07 04:49:33;;;;;;;12.18;7.90;;;;;;;6.49;100.00;92965.13;5108939;28;20576;-70
2022/12/07 04:52:01;;;;;;;13.63;9.32;;;;;;;6.47;100.00;92964.53;5109731;28;20051;-70
2022/12/07 04:54:28;;;;;;;11.63;8.38;;;;;;;6.39;100.00;92953.50;5109648;28;20105;-70
2022/12/07 04:56:55;;;;;;;15.85;6.97;;;;;;;6.36;100.00;92956.44;5109552;28;20035;-70
2022/12/07 04:59:21;;;;;;;9.98;7.13;;;;;;;6.43;100.00;92955.69;5110558;28;20043;-70
2022/12/07 05:01:48;;;;;;;10.18;6.45;;;;;;;6.39;100.00;92962.94;5113820;28;20093;-71
2022/12/07 05:04:15;;;;;;;11.10;7.20;;;;;;;6.41;100.00;92966.06;5113203;28;20097;-70
2022/12/07 05:06:42;;;;;;;10.90;7.70;;;;;;;6.39;100.00;92968.03;5113078;28;20040;-70
2022/12/07 05:09:10;;;;;;;8.57;6.57;;;;;;;6.39;100.00;92973.91;5110834;28;20051;-71
2022/12/07 05:11:40;;;;;;;9.18;6.22;;;;;;;6.33;100.00;92966.22;5113369;28;20051;-71
2022/12/07 05:14:10;;;;;;;13.18;7.40;;;;;;;6.37;100.00;92977.63;5113272;28;20095;-71
2022/12/07 05:16:37;;;;;;;11.43;6.95;;;;;;;6.41;100.00;92977.06;5112657;28;20116;-71
2022/12/07 05:19:04;;;;;;;11.70;6.70;;;;;;;6.32;100.00;92964.66;5113450;28;20048;-71
2022/12/07 05:21:31;;;;;;;9.35;7.30;;;;;;;6.47;100.00;92987.50;5112980;28;20100;-71
2022/12/07 05:23:58;;;;;;;13.68;7.75;;;;;;;6.47;100.00;92985.72;5112721;28;20081;-71
2022/12/07 05:26:26;;;;;;;12.23;8.07;;;;;;;6.46;100.00;92986.69;5113230;28;20096;-71
2022/12/07 05:28:54;;;;;;;10.32;7.05;;;;;;;6.36;100.00;92971.75;5112968;28;20047;-72
2022/12/07 05:31:21;;;;;;;11.23;7.65;;;;;;;6.49;100.00;92976.09;5112658;28;20479;-71
2022/12/07 05:33:47;;;;;;;10.30;7.35;;;;;;;6.47;100.00;92975.50;5112813;28;20055;-71
2022/12/07 05:36:14;;;;;;;11.85;7.10;;;;;;;6.46;100.00;92965.50;5112780;28;20044;-71
2022/12/07 05:38:41;;;;;;;11.38;6.75;;;;;;;6.46;100.00;92978.25;5112371;28;20499;-71
2022/12/07 05:42:11;;;;;;;10.60;7.05;;;;;;;6.37;100.00;92959.78;5112424;28;20093;-71
2022/12/07 05:43:58;;;;;;;9.88;6.50;;;;;;;6.39;100.00;92966.25;5112285;28;20047;-71
2022/12/07 05:46:25;;;;;;;11.55;7.22;;;;;;;6.44;100.00;92970.00;5112615;28;20097;-71
2022/12/07 05:48:52;;;;;;;9.13;6.90;;;;;;;6.41;100.00;92961.78;5112149;28;20552;-71
2022/12/07 05:51:19;;;;;;;11.32;6.82;;;;;;;6.37;100.00;92959.78;5112527;28;20036;-71
2022/12/07 05:53:45;;;;;;;8.65;6.05;;;;;;;6.43;100.00;92963.34;5112188;28;20047;-71
2022/12/07 05:56:12;;;;;;;10.38;5.95;;;;;;;6.35;100.00;92956.63;5112350;28;20047;-71
2022/12/07 06:01:25;;;;;;;9.95;6.80;;;;;;;6.42;100.00;92965.09;5112344;28;20066;-71
2022/12/07 06:03:52;;;;;;;11.32;7.38;;;;;;;6.39;100.00;92961.16;5112272;28;20039;-72
2022/12/07 06:06:18;;;;;;;11.73;7.47;;;;;;;6.40;100.00;92961.94;5112185;28;20507;-71
2022/12/07 06:08:45;;;;;;;10.18;6.72;;;;;;;6.39;100.00;92961.16;5112010;28;20579;-71
2022/12/07 06:13:56;;;;;;;14.45;6.97;;;;;;;6.41;100.00;92964.31;5112140;28;20151;-71
2022/12/07 06:16:22;;;;;;;12.50;7.13;;;;;;;6.38;100.00;92951.94;5111803;28;20048;-71
2022/12/07 06:18:50;;;;;;;14.10;6.85;;;;;;;6.47;100.00;92962.00;5112241;28;20048;-71
2022/12/07 06:21:17;;;;;;;12.48;6.45;;;;;;;6.46;100.00;92968.03;5111904;28;20479;-71
2022/12/07 06:23:44;;;;;;;11.75;7.32;;;;;;;6.49;100.00;92960.78;5111832;28;20089;-71
2022/12/07 06:26:11;;;;;;;10.70;6.40;;;;;;;6.55;100.00;92966.91;5111839;28;20469;-70
2022/12/07 06:28:37;;;;;;;10.88;6.43;;;;;;;6.54;100.00;92948.25;5112175;28;20100;-71
2022/12/07 06:31:04;;;;;;;12.82;8.60;;;;;;;6.62;100.00;92954.97;5111497;28;20100;-71
2022/12/07 06:33:31;;;;;;;12.43;6.85;;;;;;;6.67;100.00;92955.16;5111600;28;20056;-71
2022/12/07 06:35:59;;;;;;;10.63;6.70;;;;;;;6.70;100.00;92959.09;5111347;28;20043;-70
2022/12/07 06:38:26;;;;;;;10.30;6.10;;;;;;;6.67;100.00;92967.16;5110864;28;20043;-71
2022/12/07 06:40:52;;;;;;;10.68;7.20;;;;;;;6.68;100.00;92961.84;5111532;28;20050;-71
2022/12/07 06:43:19;;;;;;;11.18;6.50;;;;;;;6.70;100.00;92971.09;5111342;28;20048;-71
2022/12/07 06:45:46;;;;;;;9.70;6.28;;;;;;;6.71;100.00;92968.34;5111290;28;20043;-71
2022/12/07 06:48:12;;;;;;;12.70;7.07;;;;;;;6.76;100.00;92970.34;5111329;28;20054;-71
2022/12/07 06:50:39;;;;;;;10.52;7.07;;;;;;;6.80;100.00;92969.75;5111123;28;20043;-72
2022/12/07 06:53:08;;;;;;;13.00;7.40;;;;;;;6.76;100.00;92960.88;5111378;28;20040;-71
2022/12/07 06:55:35;;;;;;;11.63;7.47;;;;;;;6.86;100.00;92965.66;5111114;28;20384;-71
2022/12/07 06:58:02;;;;;;;11.27;7.57;;;;;;;6.90;100.00;92968.59;5111043;28;20105;-71
2022/12/07 07:00:29;;;;;;;12.05;7.43;;;;;;;6.87;100.00;92966.41;5110967;28;20040;-71
2022/12/07 07:02:56;;;;;;;12.52;8.48;;;;;;;6.91;100.00;92975.28;5110928;28;20051;-71
2022/12/07 07:05:23;;;;;;;15.02;8.85;;;;;;;6.92;100.00;92964.88;5110836;28;20491;-71
2022/12/07 07:07:50;;;;;;;21.65;12.05;;;;;;;6.89;100.00;92964.47;5110908;28;20108;-71
2022/12/07 07:10:18;;;;;;;22.52;12.25;;;;;;;6.91;100.00;92965.84;5110941;28;20105;-72
2022/12/07 07:12:44;;;;;;;18.20;11.88;;;;;;;6.94;100.00;92969.78;5110954;28;20055;-72
2022/12/07 07:15:11;;;;;;;16.13;11.05;;;;;;;6.94;100.00;92969.78;5110846;28;20047;-72
2022/12/07 07:17:38;;;;;;;16.42;10.48;;;;;;;6.90;100.00;92960.94;5110939;28;20134;-72
2022/12/07 07:20:07;;;;;;;16.15;9.43;;;;;;;7.03;100.00;92973.72;5110468;28;20048;-71
2022/12/07 07:22:33;;;;;;;12.73;8.82;;;;;;;7.09;100.00;92974.75;5109890;28;20051;-71
2022/12/07 07:25:00;;;;;;;14.93;8.43;;;;;;;7.04;100.00;92956.66;5110871;28;20056;-71
2022/12/07 07:27:28;;;;;;;14.40;7.43;;;;;;;7.13;100.00;92970.03;5110360;28;20120;-71
2022/12/07 07:29:55;;;;;;;21.85;16.05;;;;;;;7.19;100.00;92982.78;5110921;28;20044;-72
2022/12/07 07:32:22;;;;;;;22.83;15.98;;;;;;;7.22;100.00;92971.41;5110406;28;20051;-72
2022/12/07 07:34:49;;;;;;;83.43;55.05;;;;;;;7.29;100.00;92979.06;5110266;28;20503;-72
2022/12/07 07:37:15;;;;;;;26.80;18.35;;;;;;;7.36;100.00;92982.41;5110262;28;20048;-72
2022/12/07 07:39:42;;;;;;;17.48;11.73;;;;;;;7.42;100.00;92980.88;5110098;28;20051;-71
2022/12/07 07:42:09;;;;;;;14.13;10.00;;;;;;;7.42;100.00;92976.56;5110396;28;20043;-72
2022/12/07 07:44:37;;;;;;;17.90;12.93;;;;;;;7.56;100.00;92990.13;5110081;28;20491;-72
2022/12/07 07:47:04;;;;;;;16.13;9.70;;;;;;;7.65;100.00;92990.72;5110402;28;20047;-72
2022/12/07 07:49:30;;;;;;;13.18;9.30;;;;;;;7.67;100.00;92987.94;5110097;27;20104;-72
2022/12/07 07:51:57;;;;;;;12.98;8.77;;;;;;;7.69;100.00;92986.75;5110006;28;20048;-71
2022/12/07 07:54:24;;;;;;;9.70;6.82;;;;;;;7.71;100.00;92992.47;5110213;28;20470;-71
2022/12/07 07:56:51;;;;;;;9.90;6.70;;;;;;;7.71;100.00;92989.94;5110061;28;20507;-71
2022/12/07 07:59:17;;;;;;;9.38;6.65;;;;;;;7.79;100.00;92991.50;5109878;28;20043;-71
2022/12/07 08:01:45;;;;;;;8.93;6.55;;;;;;;7.84;100.00;92993.44;5110081;28;20047;-72
2022/12/07 08:04:12;;;;;;;13.10;8.05;;;;;;;7.89;100.00;92988.53;5109487;28;20039;-71
2022/12/07 08:06:39;;;;;;;12.27;6.93;;;;;;;7.87;100.00;92983.63;5110492;28;20044;-71
2022/12/07 08:09:06;;;;;;;13.27;7.95;;;;;;;7.95;100.00;92987.75;5110089;28;20051;-72
2022/12/07 08:11:33;;;;;;;17.98;8.85;;;;;;;8.00;100.00;92982.00;5109879;28;20406;-71
2022/12/07 08:13:59;;;;;;;14.55;8.35;;;;;;;8.06;100.00;92983.78;5110128;28;20056;-71
2022/12/07 08:16:26;;;;;;;13.15;8.48;;;;;;;8.10;100.00;92984.97;5109541;28;20054;-71
2022/12/07 08:18:54;;;;;;;11.77;8.07;;;;;;;8.22;100.00;92986.91;5109526;28;20043;-71
2022/12/07 08:21:21;;;;;;;9.27;6.70;;;;;;;8.37;100.00;92984.09;5109638;28;20092;-71
2022/12/07 08:23:48;;;;;;;11.60;6.65;;;;;;;8.49;100.00;92979.97;5109572;28;20043;-71
2022/12/07 08:26:16;;;;;;;7.93;5.93;;;;;;;8.59;100.00;92977.00;5110051;28;20044;-71
2022/12/07 08:28:44;;;;;;;7.97;5.53;;;;;;;8.59;100.00;92991.56;5109840;28;20039;-71
2022/12/07 08:31:14;;;;;;;9.20;5.85;;;;;;;8.67;100.00;92987.00;5109571;28;20051;-71
2022/12/07 08:33:41;;;;;;;7.63;5.32;;;;;;;8.76;100.00;92984.22;5109949;28;20047;-71
2022/12/07 08:36:11;;;;;;;12.18;6.00;;;;;;;8.86;100.00;92986.34;5113993;28;20116;-71
2022/12/07 08:38:40;;;;;;;19.63;11.00;;;;;;;8.93;100.00;92976.84;5113713;28;20113;-71
2022/12/07 08:41:08;;;;;;;12.80;7.68;;;;;;;8.93;100.00;92989.63;5113493;28;20073;-71
2022/12/07 08:43:35;;;;;;;12.75;8.00;;;;;;;8.84;100.00;92966.03;5113723;28;20448;-72
2022/12/07 08:46:09;;;;;;;10.20;6.55;;;;;;;8.93;100.00;92979.38;5113939;28;20051;-72
2022/12/07 08:48:39;;;;;;;11.38;6.43;;;;;;;8.94;100.00;92984.31;5113837;28;20502;-72
2022/12/07 08:51:06;;;;;;;10.93;6.70;;;;;;;8.93;100.00;92992.19;5113756;27;20390;-72
2022/12/07 08:53:35;;;;;;;13.52;7.18;;;;;;;8.93;100.00;92981.94;5113634;28;20058;-72
2022/12/07 08:56:02;;;;;;;11.70;7.85;;;;;;;8.93;100.00;92974.28;5113501;28;20491;-71
2022/12/07 08:58:29;;;;;;;11.43;7.53;;;;;;;8.91;100.00;92973.69;5113541;28;20055;-71
2022/12/07 09:00:56;;;;;;;14.77;7.93;;;;;;;8.96;100.00;92966.19;5113648;28;20129;-71
2022/12/07 09:03:23;;;;;;;11.20;7.60;;;;;;;8.98;100.00;92964.19;5113908;28;20100;-71
2022/12/07 09:05:49;;;;;;;15.43;7.05;;;;;;;9.06;100.00;92963.16;5113476;28;20044;-72
2022/12/07 09:08:17;;;;;;;13.57;7.95;;;;;;;9.18;100.00;92958.97;5113241;28;20456;-71
2022/12/07 09:10:46;;;;;;;20.67;10.27;;;;;;;9.30;100.00;92946.25;5111964;28;20047;-72
2022/12/07 09:13:12;;;;;;;19.02;10.50;;;;;;;9.59;100.00;92961.25;5108213;28;20059;-72
2022/12/07 09:15:39;;;;;;;15.73;8.18;;;;;;;9.68;100.00;92957.41;5111848;28;20089;-71
2022/12/07 09:18:06;;;;;;;13.77;7.75;;;;;;;9.75;100.00;92952.25;5111238;28;20055;-72
2022/12/07 09:20:33;;;;;;;13.90;8.35;;;;;;;9.76;100.00;92959.72;5110298;28;20487;-72
2022/12/07 09:23:00;;;;;;;11.93;7.97;;;;;;;9.75;100.00;92957.38;5111332;28;20108;-72
2022/12/07 09:25:27;;;;;;;16.30;10.02;;;;;;;9.74;100.00;92953.25;5110890;28;20445;-72
2022/12/07 09:27:59;;;;;;;10.23;7.28;;;;;;;9.79;100.00;92947.47;5111487;28;20067;-72
2022/12/07 09:30:27;;;;;;;15.73;10.23;;;;;;;9.82;100.00;92950.41;5112567;28;20039;-71
2022/12/07 09:32:54;;;;;;;12.68;8.20;;;;;;;9.80;100.00;92947.25;5112678;28;20125;-71
2022/12/07 09:35:21;;;;;;;18.27;11.50;;;;;;;9.86;100.00;92946.41;5112438;28;20088;-72
2022/12/07 09:37:48;;;;;;;15.60;7.45;;;;;;;9.86;100.00;92943.84;5112427;28;20055;-71
2022/12/07 09:40:17;;;;;;;11.25;6.55;;;;;;;9.86;100.00;92941.28;5111974;28;20052;-72
2022/12/07 09:42:48;;;;;;;22.70;11.43;;;;;;;9.97;100.00;92934.69;5112246;28;20154;-71
2022/12/07 09:45:19;;;;;;;20.73;10.50;;;;;;;10.06;100.00;92929.25;5111799;28;20093;-71
2022/12/07 09:47:47;;;;;;;18.60;9.05;;;;;;;10.06;100.00;92927.50;5112355;28;20043;-72
2022/12/07 09:50:17;;;;;;;15.85;8.07;;;;;;;10.12;100.00;92924.06;5111776;28;20479;-71
2022/12/07 09:52:47;;;;;;;13.18;8.13;;;;;;;10.18;100.00;92924.22;5107079;28;20052;-72
2022/12/07 09:55:16;;;;;;;14.55;8.13;;;;;;;10.32;100.00;92920.50;5097326;28;20051;-72
2022/12/07 09:57:44;;;;;;;14.73;7.47;;;;;;;10.42;100.00;92927.72;5113039;28;20756;-72
2022/12/07 10:00:15;;;;;;;12.57;6.18;;;;;;;10.45;100.00;92922.16;5112758;28;20051;-71
2022/12/07 10:02:45;;;;;;;39.45;16.65;;;;;;;10.51;100.00;92916.16;5100875;28;20121;-71
2022/12/07 10:05:16;;;;;;;68.30;23.80;;;;;;;10.50;100.00;92900.97;5103991;28;20514;-71
2022/12/07 10:07:43;;;;;;;27.05;10.43;;;;;;;10.67;100.00;92908.84;5112306;28;20457;-71
2022/12/07 10:10:18;;;;;;;40.13;17.20;;;;;;;10.76;100.00;92907.56;5112799;28;20524;-71
2022/12/07 10:12:58;;;;;;;58.35;26.85;;;;;;;10.75;100.00;92911.13;5112486;28;20047;-71
2022/12/07 10:15:52;;;;;;;172.57;68.68;;;;;;;10.76;100.00;92906.78;5112671;28;20096;-71
2022/12/07 10:18:31;;;;;;;55.17;21.70;;;;;;;10.76;100.00;92892.16;5112549;28;20459;-71
2022/12/07 10:21:13;;;;;;;17.52;9.13;;;;;;;10.85;100.00;92895.19;5112069;27;20043;-71
2022/12/07 10:23:42;;;;;;;69.35;28.30;;;;;;;10.93;100.00;92900.00;5111882;28;20043;-71
2022/12/07 10:26:27;;;;;;;22.60;10.07;;;;;;;10.88;100.00;92899.13;5112741;28;20445;-71
2022/12/07 10:28:54;;;;;;;32.60;14.85;;;;;;;10.87;100.00;92888.03;5112257;28;20043;-71
2022/12/07 10:31:23;;;;;;;18.20;8.35;;;;;;;10.79;100.00;92888.34;5112101;28;20052;-71
2022/12/07 10:33:53;;;;;;;12.68;7.35;;;;;;;10.76;100.00;92879.31;5111980;28;20092;-72
2022/12/07 10:36:23;;;;;;;24.77;10.80;;;;;;;10.75;100.00;92882.09;5111691;28;20052;-71
2022/12/07 10:38:52;;;;;;;18.02;8.32;;;;;;;10.65;100.00;92883.38;5111328;28;20448;-71
2022/12/07 10:41:19;;;;;;;19.67;9.35;;;;;;;10.71;100.00;92876.59;5110844;28;20043;-71
2022/12/07 10:43:52;;;;;;;18.35;9.32;;;;;;;10.59;100.00;92858.56;5111544;27;20123;-71
2022/12/07 10:46:48;;;;;;;11.73;6.07;;;;;;;10.67;100.00;92876.25;5112038;28;20116;-71
2022/12/07 10:49:43;;;;;;;23.05;10.75;;;;;;;10.67;100.00;92866.00;5111038;28;20043;-72
2022/12/07 10:52:21;;;;;;;17.20;7.63;;;;;;;10.64;100.00;92868.22;5089390;28;20051;-72
2022/12/07 10:54:59;;;;;;;11.10;6.57;;;;;;;10.64;100.00;92863.84;5109813;28;20108;-71
2022/12/07 10:57:45;;;;;;;11.27;5.85;;;;;;;10.41;100.00;92831.91;5109684;28;20047;-72
2022/12/07 11:00:22;;;;;;;22.30;10.88;;;;;;;10.73;100.00;92845.56;5097468;28;20047;-72
2022/12/07 11:03:04;;;;;;;18.05;9.00;;;;;;;10.78;100.00;92841.31;5111157;28;20039;-72
2022/12/07 11:05:46;;;;;;;9.93;5.25;;;;;;;10.80;100.00;92841.09;5111327;28;20127;-72
2022/12/07 11:08:29;;;;;;;13.13;6.78;;;;;;;10.82;100.00;92831.38;5111486;28;20449;-71
2022/12/07 11:11:00;;;;;;;9.20;6.15;;;;;;;10.88;100.00;92837.44;5110853;28;20040;-71
2022/12/07 11:13:37;;;;;;;9.05;5.25;;;;;;;10.79;100.00;92829.28;5111091;28;20047;-71
2022/12/07 11:16:17;;;;;;;12.50;5.45;;;;;;;10.83;100.00;92823.47;5110994;28;20486;-72
2022/12/07 11:18:53;;;;;;;11.43;7.03;;;;;;;10.80;100.00;92797.44;5110938;28;20180;-72
2022/12/07 11:21:31;;;;;;;8.23;5.38;;;;;;;11.01;100.00;92823.63;5098715;28;20494;-72
2022/12/07 11:24:04;;;;;;;11.75;5.75;;;;;;;11.08;100.00;92825.06;5111263;28;20051;-72
2022/12/07 11:26:44;;;;;;;11.88;5.45;;;;;;;11.19;100.00;92820.94;5110753;28;20044;-71
2022/12/07 11:29:28;;;;;;;11.20;6.50;;;;;;;11.32;100.00;92824.28;5111077;28;20535;-71
2022/12/07 11:32:06;;;;;;;15.85;8.45;;;;;;;11.49;100.00;92816.69;5110373;28;20126;-71
2022/12/07 11:34:40;;;;;;;20.35;10.35;;;;;;;11.67;100.00;92826.06;5103264;28;20044;-71
2022/12/07 11:37:14;;;;;;;12.98;6.05;;;;;;;11.66;99.57;92816.03;5106767;28;20047;-72
2022/12/07 11:39:45;;;;;;;9.10;4.75;;;;;;;11.72;99.47;92808.16;5110516;28;20116;-71
2022/12/07 11:42:18;;;;;;;10.13;5.00;;;;;;;11.72;98.77;92813.31;5107582;28;20052;-71